Time;durP1;ratioP1;P1;durP2;ratioP2;P2;SDS_P1;SDS_P2;PMS_P1;PMS_P2;Temp;Humidity;BMP_temperature;BMP_pressure;BME280_temperature;BME280_humidity;BME280_pressure;Samples;Min_cycle;Max_cycle;Signal;HPM_P1;HPM_P2
2023/02/19 00:02:24;;;;;;;33.90;18.67;;;;;;;8.15;52.40;99599.72;5127974;27;20022;-70
2023/02/19 00:04:49;;;;;;;31.65;17.13;;;;;;;8.07;52.98;99611.59;5135928;27;20466;-70
2023/02/19 00:07:15;;;;;;;32.28;17.35;;;;;;;8.03;53.10;99610.59;5135702;27;20405;-70
2023/02/19 00:09:40;;;;;;;32.42;16.90;;;;;;;8.08;52.67;99601.25;5119301;27;20400;-69
2023/02/19 00:12:06;;;;;;;30.98;18.95;;;;;;;8.24;52.21;99604.50;5115173;28;20027;-70
2023/02/19 00:14:31;;;;;;;34.38;18.77;;;;;;;8.21;52.89;99592.03;5114975;28;20031;-70
2023/02/19 00:16:57;;;;;;;34.50;19.55;;;;;;;8.09;52.84;99587.03;5115928;27;20427;-71
2023/02/19 00:19:23;;;;;;;35.60;18.95;;;;;;;8.01;53.60;99587.75;5114662;27;20080;-70
2023/02/19 00:21:52;;;;;;;32.42;19.50;;;;;;;7.96;53.65;99573.97;5114924;28;20098;-71
2023/02/19 00:24:19;;;;;;;36.13;19.63;;;;;;;7.93;53.57;99583.78;5113755;27;20043;-71
2023/02/19 00:26:45;;;;;;;35.70;18.70;;;;;;;8.17;53.22;99576.28;5127833;27;20080;-70
2023/02/19 00:29:20;;;;;;;36.55;19.40;;;;;;;8.39;52.60;99561.50;5135257;27;20023;-70
2023/02/19 00:31:46;;;;;;;40.42;20.73;;;;;;;7.77;54.08;99576.91;5127148;27;20061;-69
2023/02/19 00:34:13;;;;;;;31.38;18.88;;;;;;;8.06;53.89;99576.50;5113245;28;20035;-71
2023/02/19 00:36:40;;;;;;;38.50;20.33;;;;;;;7.71;54.48;99571.44;5113158;28;20024;-70
2023/02/19 00:39:06;;;;;;;39.17;21.33;;;;;;;7.82;54.11;99568.44;5113484;27;20503;-70
2023/02/19 00:41:32;;;;;;;36.72;22.17;;;;;;;8.13;52.87;99562.16;5105511;28;20035;-70
2023/02/19 00:44:00;;;;;;;34.45;19.65;;;;;;;8.08;52.45;99556.69;5114480;28;20031;-70
2023/02/19 00:46:27;;;;;;;33.65;20.00;;;;;;;8.05;52.86;99552.59;5113062;28;20112;-70
2023/02/19 00:48:53;;;;;;;42.40;22.05;;;;;;;7.36;54.88;99564.72;5112999;28;20504;-70
2023/02/19 00:51:21;;;;;;;38.90;20.63;;;;;;;7.72;54.72;99550.00;5114369;28;20060;-70
2023/02/19 00:53:46;;;;;;;37.45;21.55;;;;;;;7.12;55.99;99558.28;5112289;28;20039;-70
2023/02/19 00:56:12;;;;;;;44.47;22.35;;;;;;;7.20;55.92;99562.28;5110862;27;20026;-70
2023/02/19 00:58:38;;;;;;;43.40;22.90;;;;;;;7.47;55.05;99554.19;5112452;28;20509;-70
2023/02/19 01:01:05;;;;;;;40.05;23.65;;;;;;;7.77;54.09;99555.44;5108194;27;20023;-70
2023/02/19 01:03:31;;;;;;;35.28;21.73;;;;;;;7.93;53.92;99546.75;5114164;28;20057;-70
2023/02/19 01:05:57;;;;;;;41.00;21.55;;;;;;;7.90;53.53;99547.38;5114236;28;20028;-70
2023/02/19 01:08:22;;;;;;;40.72;22.42;;;;;;;8.05;53.11;99551.75;5113893;28;20827;-70
2023/02/19 01:10:48;;;;;;;38.13;20.42;;;;;;;7.55;54.54;99550.69;5113634;28;20079;-71
2023/02/19 01:13:14;;;;;;;38.08;19.65;;;;;;;7.56;54.47;99553.16;5092185;28;20031;-70
2023/02/19 01:15:39;;;;;;;47.47;22.80;;;;;;;7.55;54.47;99539.53;5101523;27;20187;-70
2023/02/19 01:18:05;;;;;;;42.58;22.35;;;;;;;7.78;54.11;99554.31;5134189;27;20027;-71
2023/02/19 01:20:31;;;;;;;43.00;23.27;;;;;;;7.63;54.63;99555.50;5131196;27;20424;-70
2023/02/19 01:22:56;;;;;;;59.50;29.15;;;;;;;7.20;55.24;99555.88;5134152;27;20031;-70
2023/02/19 01:25:22;;;;;;;66.13;33.70;;;;;;;7.47;54.74;99557.81;5126845;27;20026;-70
2023/02/19 01:27:47;;;;;;;115.60;49.58;;;;;;;6.97;55.98;99555.78;5112359;28;20076;-70
2023/02/19 01:30:13;;;;;;;82.57;36.08;;;;;;;7.03;55.78;99551.78;5113519;28;20019;-70
2023/02/19 01:32:39;;;;;;;73.22;32.50;;;;;;;7.18;55.73;99547.84;5127890;27;20110;-70
2023/02/19 01:35:04;;;;;;;56.60;27.50;;;;;;;6.97;55.97;99548.28;5133645;27;20026;-70
2023/02/19 01:37:30;;;;;;;38.17;20.02;;;;;;;7.25;55.30;99547.44;5134198;27;20023;-70
2023/02/19 01:39:56;;;;;;;24.40;14.10;;;;;;;7.20;55.27;99537.25;5118736;27;20458;-70
2023/02/19 01:42:21;;;;;;;23.85;13.32;;;;;;;7.13;55.09;99540.44;5112187;28;20023;-70
2023/02/19 01:44:47;;;;;;;22.85;13.77;;;;;;;7.13;54.89;99545.16;5112040;28;20024;-70
2023/02/19 01:47:17;;;;;;;27.42;15.43;;;;;;;7.32;54.48;99531.13;5113357;28;20161;-70
2023/02/19 01:49:49;;;;;;;20.58;13.00;;;;;;;7.38;54.00;99532.69;5112965;27;20019;-70
2023/02/19 01:52:25;;;;;;;25.00;14.32;;;;;;;7.48;54.12;99533.56;5111328;28;20032;-70
2023/02/19 01:54:52;;;;;;;23.80;13.40;;;;;;;7.42;54.15;99535.63;5112408;28;20028;-70
2023/02/19 01:57:25;;;;;;;27.85;15.32;;;;;;;7.36;54.67;99540.53;5129687;27;20011;-70
2023/02/19 01:59:55;;;;;;;25.00;15.60;;;;;;;7.36;54.95;99540.53;5111274;28;20022;-70
2023/02/19 02:02:23;;;;;;;29.23;15.45;;;;;;;7.22;55.28;99537.75;5112439;27;20085;-71
2023/02/19 02:04:49;;;;;;;27.55;15.73;;;;;;;7.06;55.97;99536.41;5112939;28;20410;-70
2023/02/19 02:12:43;;;;;;;22.17;11.82;;;;;;;7.38;55.62;99529.91;5096737;28;20176;-70
2023/02/19 02:15:09;;;;;;;22.20;10.32;;;;;;;7.57;54.89;99520.56;5112755;28;20023;-70
2023/02/19 02:17:50;;;;;;;22.50;10.02;;;;;;;7.78;54.24;99523.69;5127416;27;20031;-70
2023/02/19 02:20:50;;;;;;;14.07;8.80;;;;;;;8.04;53.22;99525.88;5131816;27;20087;-70
2023/02/19 02:23:33;;;;;;;13.10;7.57;;;;;;;8.17;52.59;99526.94;5108178;27;20043;-70
2023/02/19 02:26:11;;;;;;;11.90;6.60;;;;;;;8.19;52.39;99529.41;5131567;27;20027;-71
2023/02/19 02:29:04;;;;;;;9.73;5.88;;;;;;;8.47;51.79;99535.66;5117496;27;20108;-71
2023/02/19 02:31:40;;;;;;;8.65;5.20;;;;;;;8.50;51.56;99532.25;5117348;27;20106;-71
2023/02/19 02:34:15;;;;;;;8.13;4.80;;;;;;;8.64;50.98;99542.47;5131781;27;20114;-71
2023/02/19 02:36:44;;;;;;;7.32;5.40;;;;;;;8.76;51.33;99542.69;5131588;27;20050;-70
2023/02/19 02:39:16;;;;;;;7.15;4.78;;;;;;;8.92;50.68;99550.63;5133041;27;20381;-70
2023/02/19 02:44:35;;;;;;;8.35;4.68;;;;;;;8.93;50.25;99549.50;5112208;28;20046;-70
2023/02/19 02:47:02;;;;;;;8.40;5.20;;;;;;;8.91;50.61;99538.66;5123287;27;20396;-71
2023/02/19 02:49:28;;;;;;;9.38;6.57;;;;;;;8.27;52.11;99556.50;5132771;27;20161;-71
2023/02/19 02:51:56;;;;;;;11.05;7.80;;;;;;;8.35;51.76;99561.31;5131377;27;20058;-70
2023/02/19 02:57:17;;;;;;;34.83;17.25;;;;;;;7.96;52.47;99572.03;5122041;28;20035;-70
2023/02/19 02:59:44;;;;;;;42.38;24.20;;;;;;;7.67;53.30;99572.41;5112093;28;20501;-70
2023/02/19 03:02:22;;;;;;;23.92;15.32;;;;;;;7.86;52.96;99573.06;5107122;28;20031;-70
2023/02/19 03:08:10;;;;;;;14.18;10.23;;;;;;;7.59;54.11;99579.53;5112320;28;20080;-70
2023/02/19 03:10:43;;;;;;;17.35;8.88;;;;;;;7.38;54.56;99584.72;5111983;28;20039;-70
2023/02/19 03:19:22;;;;;;;15.55;6.90;;;;;;;7.33;54.20;99562.56;5091684;28;20090;-70
2023/02/19 03:22:08;;;;;;;11.23;7.13;;;;;;;7.38;54.65;99595.84;5091553;28;20043;-71
2023/02/19 03:27:27;;;;;;;16.53;8.63;;;;;;;7.11;55.46;99598.31;5108756;28;20081;-70
2023/02/19 03:29:56;;;;;;;16.97;7.80;;;;;;;6.96;56.26;99596.69;5110621;28;20090;-70
2023/02/19 03:32:31;;;;;;;14.32;7.82;;;;;;;7.07;55.55;99588.94;5112390;28;20428;-70
2023/02/19 03:35:12;;;;;;;16.45;8.23;;;;;;;7.43;55.00;99598.53;5110544;28;20023;-70
2023/02/19 03:37:45;;;;;;;16.38;8.60;;;;;;;7.66;54.03;99598.59;5112580;28;20015;-71
2023/02/19 03:40:12;;;;;;;14.70;8.15;;;;;;;7.61;54.77;99610.69;5114505;28;20023;-70
2023/02/19 03:42:55;;;;;;;14.45;7.78;;;;;;;7.57;54.85;99609.63;5114026;28;20027;-70
2023/02/19 03:45:20;;;;;;;17.23;8.25;;;;;;;7.53;54.89;99609.44;5114437;28;20409;-70
2023/02/19 03:48:23;;;;;;;13.68;7.97;;;;;;;7.61;54.46;99609.84;5122592;27;20114;-70
2023/02/19 03:50:57;;;;;;;28.63;8.85;;;;;;;7.50;54.49;99612.03;5134658;27;20027;-70
2023/02/19 03:53:31;;;;;;;16.67;8.93;;;;;;;7.38;54.83;99612.53;5135954;27;20478;-70
2023/02/19 03:56:24;;;;;;;20.17;9.20;;;;;;;7.40;54.69;99610.28;5127811;27;20055;-71
2023/02/19 03:59:08;;;;;;;19.48;9.93;;;;;;;7.36;54.99;99614.81;5115424;28;20390;-70
2023/02/19 04:01:40;;;;;;;33.75;15.90;;;;;;;7.42;54.74;99616.34;5115246;28;20034;-70
2023/02/19 04:04:11;;;;;;;28.08;13.30;;;;;;;7.22;55.33;99623.16;5118110;27;20023;-71
2023/02/19 04:06:36;;;;;;;;;;;;;;;7.37;54.98;99622.88;5134824;27;20027;-70
2023/02/19 04:09:07;;;;;;;26.63;12.35;;;;;;;7.13;55.53;99623.06;5135649;27;19907;-70
2023/02/19 04:11:34;;;;;;;25.45;13.10;;;;;;;7.26;55.43;99630.56;5115159;27;20512;-70
2023/02/19 04:14:02;;;;;;;28.63;14.45;;;;;;;7.44;54.85;99626.03;5113822;28;20023;-70
2023/02/19 04:16:29;;;;;;;29.98;14.00;;;;;;;7.52;54.49;99627.28;5115339;27;20490;-70
2023/02/19 04:19:01;;;;;;;23.05;14.55;;;;;;;7.50;54.42;99626.75;5115356;28;20028;-70
2023/02/19 04:21:29;;;;;;;23.73;13.63;;;;;;;7.41;54.59;99632.25;5114271;28;20023;-70
2023/02/19 04:23:59;;;;;;;29.35;14.70;;;;;;;7.43;54.62;99627.19;5113489;28;20047;-70
2023/02/19 04:26:25;;;;;;;22.20;11.98;;;;;;;7.39;55.08;99626.16;5122984;27;20125;-70
2023/02/19 04:28:50;;;;;;;23.17;11.60;;;;;;;7.36;54.97;99635.13;5114775;28;20016;-70
2023/02/19 04:31:16;;;;;;;18.60;9.63;;;;;;;7.37;55.08;99631.22;5113436;28;20027;-70
2023/02/19 04:33:41;;;;;;;18.05;7.85;;;;;;;7.39;54.87;99639.25;5114792;28;20442;-70
2023/02/19 04:36:09;;;;;;;11.20;5.88;;;;;;;7.48;55.11;99640.16;5114655;28;20372;-70
2023/02/19 04:38:35;;;;;;;16.77;8.43;;;;;;;7.55;54.51;99645.31;5113268;28;20070;-70
2023/02/19 04:41:00;;;;;;;21.10;9.07;;;;;;;7.65;54.16;99653.47;5113878;27;20047;-70
2023/02/19 04:43:26;;;;;;;15.55;7.25;;;;;;;7.62;54.30;99650.47;5114477;27;20023;-70
2023/02/19 04:45:51;;;;;;;20.42;9.02;;;;;;;7.64;54.04;99659.31;5114923;28;20077;-70
2023/02/19 04:48:17;;;;;;;13.13;7.07;;;;;;;7.70;54.18;99664.47;5132900;27;20015;-70
2023/02/19 04:50:42;;;;;;;11.18;7.20;;;;;;;7.64;54.23;99662.94;5133804;27;20094;-70
2023/02/19 04:53:08;;;;;;;17.90;9.68;;;;;;;7.71;53.95;99666.13;5134792;27;20015;-70
2023/02/19 04:55:38;;;;;;;26.50;14.20;;;;;;;7.78;54.37;99667.69;5130889;27;20401;-71
2023/02/19 04:58:03;;;;;;;;;;;;;;;7.71;54.21;99674.47;5135357;27;20027;-70
2023/02/19 05:00:29;;;;;;;30.48;13.80;;;;;;;7.85;53.90;99690.38;5134934;27;19912;-70
2023/02/19 05:02:55;;;;;;;25.02;12.80;;;;;;;7.71;54.03;99684.81;5133476;27;20045;-70
2023/02/19 05:05:20;;;;;;;69.95;14.63;;;;;;;7.80;54.36;99688.50;5133814;27;20513;-70
2023/02/19 05:07:46;;;;;;;32.08;12.90;;;;;;;7.80;54.21;99698.81;5133229;27;20019;-71
2023/02/19 05:10:11;;;;;;;44.15;13.30;;;;;;;7.72;54.24;99697.59;5128342;27;20020;-70
2023/02/19 05:12:37;;;;;;;29.63;9.98;;;;;;;7.74;53.47;99700.88;5113838;28;20081;-70
2023/02/19 05:15:02;;;;;;;15.05;8.98;;;;;;;7.51;53.96;99699.97;5112411;28;20020;-71
2023/02/19 05:17:28;;;;;;;16.13;8.73;;;;;;;7.44;54.64;99706.75;5126143;27;20473;-70
2023/02/19 05:19:53;;;;;;;11.00;5.28;;;;;;;7.15;55.59;99710.66;5132966;27;20035;-70
2023/02/19 05:22:19;;;;;;;7.85;5.25;;;;;;;7.22;55.59;99713.03;5134135;27;20489;-71
2023/02/19 05:24:44;;;;;;;8.45;4.60;;;;;;;7.24;55.47;99713.53;5128595;27;20090;-70
2023/02/19 05:27:09;;;;;;;7.20;4.57;;;;;;;7.32;55.28;99716.75;5114431;27;20024;-70
2023/02/19 05:29:35;;;;;;;9.27;4.75;;;;;;;7.39;55.46;99715.22;5111055;28;20106;-70
2023/02/19 05:32:00;;;;;;;8.52;5.07;;;;;;;7.36;55.32;99717.78;5112574;28;20034;-70
2023/02/19 05:34:26;;;;;;;16.80;5.60;;;;;;;7.43;55.22;99724.59;5111061;28;20494;-70
2023/02/19 05:36:51;;;;;;;7.18;4.18;;;;;;;7.53;54.77;99719.97;5113085;28;20459;-71
2023/02/19 05:39:17;;;;;;;8.65;3.97;;;;;;;7.64;54.85;99731.72;5112050;28;20405;-70
2023/02/19 05:41:42;;;;;;;6.50;3.92;;;;;;;7.71;54.24;99730.16;5112858;28;20024;-70
2023/02/19 05:44:10;;;;;;;14.88;4.03;;;;;;;7.64;54.99;99726.97;5112747;28;20104;-70
2023/02/19 05:46:35;;;;;;;7.93;4.50;;;;;;;7.69;55.08;99731.63;5116600;27;20504;-70
2023/02/19 05:49:02;;;;;;;9.30;3.92;;;;;;;7.77;54.63;99732.84;5128628;27;20049;-70
2023/02/19 05:51:28;;;;;;;10.73;4.07;;;;;;;7.83;55.18;99723.25;5105287;28;20020;-71
2023/02/19 05:53:55;;;;;;;7.55;4.28;;;;;;;8.01;54.73;99719.53;5111453;28;20047;-70
2023/02/19 05:56:31;;;;;;;8.93;4.65;;;;;;;8.29;53.67;99733.41;5103550;27;20545;-73
2023/02/19 05:58:57;;;;;;;9.77;5.97;;;;;;;8.32;53.96;99736.69;5103774;28;20028;-70
2023/02/19 06:01:25;;;;;;;12.60;6.55;;;;;;;8.51;53.03;99744.97;5100455;28;20020;-71
2023/02/19 06:03:51;;;;;;;11.70;7.30;;;;;;;8.62;52.88;99742.75;5093327;28;20020;-71
2023/02/19 06:06:20;;;;;;;11.00;7.20;;;;;;;8.92;51.59;99735.59;5110211;28;20073;-74
2023/02/19 06:08:49;;;;;;;11.45;5.85;;;;;;;8.93;51.54;99745.59;5109734;28;20110;-73
2023/02/19 06:11:15;;;;;;;8.63;5.53;;;;;;;9.05;51.23;99750.63;5112290;28;20486;-71
2023/02/19 06:13:40;;;;;;;13.45;9.18;;;;;;;9.24;51.33;99752.38;5110499;28;20063;-74
2023/02/19 06:16:07;;;;;;;9.07;5.95;;;;;;;9.41;50.66;99741.31;5111217;27;20057;-71
2023/02/19 06:18:33;;;;;;;11.82;7.60;;;;;;;9.52;49.94;99744.66;5106256;27;20042;-71
2023/02/19 06:21:06;;;;;;;12.88;6.85;;;;;;;9.68;50.13;99749.78;5107074;28;20032;-73
2023/02/19 06:23:32;;;;;;;9.43;6.07;;;;;;;9.74;49.59;99754.09;5108349;28;20386;-71
2023/02/19 06:26:05;;;;;;;9.98;7.15;;;;;;;9.94;49.85;99754.66;5115836;27;20030;-71
2023/02/19 06:28:30;;;;;;;9.20;6.30;;;;;;;10.05;49.25;99761.59;5115522;27;20024;-73
2023/02/19 06:30:57;;;;;;;12.43;6.82;;;;;;;10.16;48.42;99756.53;5104618;28;20028;-72
2023/02/19 06:33:23;;;;;;;17.80;7.82;;;;;;;10.33;48.49;99757.72;5108395;28;20025;-73
2023/02/19 06:35:49;;;;;;;15.02;7.47;;;;;;;10.46;47.37;99755.97;5108605;28;20106;-70
2023/02/19 06:38:14;;;;;;;10.50;6.07;;;;;;;10.62;47.98;99759.09;5106792;28;20084;-72
2023/02/19 06:40:39;;;;;;;11.65;5.30;;;;;;;10.87;47.42;99763.03;5106315;28;20038;-71
2023/02/19 06:43:05;;;;;;;8.25;4.65;;;;;;;11.15;47.01;99768.28;5108807;28;20786;-73
2023/02/19 06:45:30;;;;;;;11.50;5.13;;;;;;;11.38;46.19;99763.31;5105606;27;20030;-73
2023/02/19 06:47:56;;;;;;;17.13;5.97;;;;;;;11.56;45.20;99770.84;5111907;28;20027;-73
2023/02/19 06:50:21;;;;;;;15.77;8.07;;;;;;;11.80;45.04;99773.88;5109432;28;20023;-73
2023/02/19 06:52:47;;;;;;;19.55;13.38;;;;;;;11.96;44.47;99773.31;5126423;27;20019;-73
2023/02/19 06:55:12;;;;;;;16.50;10.18;;;;;;;12.15;44.30;99783.31;5113629;27;20406;-72
2023/02/19 06:57:38;;;;;;;20.30;12.82;;;;;;;12.30;43.93;99782.72;5111576;28;20112;-72
2023/02/19 07:00:04;;;;;;;14.52;10.23;;;;;;;12.41;43.77;99780.34;5111549;28;20050;-72
2023/02/19 07:02:29;;;;;;;12.32;8.32;;;;;;;12.49;43.63;99781.47;5105948;28;20034;-73
2023/02/19 07:04:55;;;;;;;8.60;5.78;;;;;;;12.57;43.25;99779.75;5111446;28;20379;-72
2023/02/19 07:07:20;;;;;;;12.27;6.15;;;;;;;12.65;42.75;99784.47;5116311;28;20015;-72
2023/02/19 07:09:45;;;;;;;9.50;5.43;;;;;;;12.82;42.38;99782.72;5116130;27;20489;-72
2023/02/19 07:12:11;;;;;;;11.93;5.60;;;;;;;12.99;42.36;99776.94;5116199;27;20486;-72
2023/02/19 07:14:37;;;;;;;12.40;5.72;;;;;;;13.11;42.90;99783.78;5121616;27;20019;-72
2023/02/19 07:17:02;;;;;;;9.32;5.13;;;;;;;13.28;42.09;99786.44;5109581;27;20012;-72
2023/02/19 07:19:28;;;;;;;9.43;4.65;;;;;;;13.45;40.87;99779.84;5108489;28;20035;-72
2023/02/19 07:21:53;;;;;;;11.88;6.28;;;;;;;13.61;41.05;99790.41;5114038;28;20024;-72
2023/02/19 07:24:20;;;;;;;12.32;6.20;;;;;;;13.59;39.91;99779.50;5112102;28;20047;-72
2023/02/19 07:26:45;;;;;;;16.48;6.00;;;;;;;13.55;39.04;99783.34;5112609;28;20019;-72
2023/02/19 07:29:11;;;;;;;17.95;14.13;;;;;;;13.58;39.22;99782.69;5109427;28;20026;-73
2023/02/19 07:31:36;;;;;;;10.98;7.97;;;;;;;13.65;38.66;99780.09;5108463;28;20023;-73
2023/02/19 07:34:02;;;;;;;28.67;19.45;;;;;;;13.71;38.80;99781.53;5109359;28;20081;-73
2023/02/19 07:36:28;;;;;;;18.85;8.40;;;;;;;13.75;39.47;99778.81;5108369;28;20490;-73
2023/02/19 07:38:57;;;;;;;16.00;8.80;;;;;;;13.73;39.28;99779.19;5110631;28;20198;-73
2023/02/19 07:41:25;;;;;;;13.55;8.38;;;;;;;13.75;39.21;99781.63;5110110;28;20126;-73
2023/02/19 07:43:52;;;;;;;13.20;7.63;;;;;;;13.74;39.27;99788.44;5127642;27;20031;-73
2023/02/19 07:46:17;;;;;;;16.05;8.57;;;;;;;13.98;38.40;99770.78;5115730;27;20027;-71
2023/02/19 07:48:43;;;;;;;9.85;6.88;;;;;;;14.17;37.09;99769.34;5112254;27;20027;-71
2023/02/19 07:51:18;;;;;;;12.18;7.55;;;;;;;14.34;37.65;99771.09;5111131;27;20092;-71
2023/02/19 07:53:51;;;;;;;17.95;7.47;;;;;;;14.36;36.88;99765.13;5113766;28;20023;-73
2023/02/19 07:56:18;;;;;;;13.00;8.27;;;;;;;14.15;37.28;99758.47;5105535;28;20024;-72
2023/02/19 07:58:47;;;;;;;10.43;6.88;;;;;;;14.36;37.75;99765.97;5094505;28;20066;-72
2023/02/19 08:01:15;;;;;;;14.13;8.48;;;;;;;14.38;37.28;99765.59;5096989;28;20035;-70
2023/02/19 08:03:41;;;;;;;20.38;6.90;;;;;;;14.55;36.95;99762.53;5113751;28;20463;-69
2023/02/19 08:06:07;;;;;;;17.73;8.95;;;;;;;14.59;37.54;99760.63;5103320;28;20027;-70
2023/02/19 08:08:32;;;;;;;16.35;8.32;;;;;;;14.77;36.41;99759.56;5114208;27;20030;-69
2023/02/19 08:13:43;;;;;;;17.42;7.85;;;;;;;14.76;37.52;99755.13;5094523;28;20039;-71
2023/02/19 08:16:12;;;;;;;23.25;7.40;;;;;;;14.78;37.55;99753.59;5102779;28;20417;-69
2023/02/19 08:18:38;;;;;;;8.57;5.70;;;;;;;14.97;37.13;99744.50;5112903;27;20490;-70
2023/02/19 08:21:03;;;;;;;10.15;6.10;;;;;;;15.14;36.93;99751.81;5112095;27;20066;-72
2023/02/19 08:23:29;;;;;;;9.68;6.78;;;;;;;15.37;37.14;99733.47;5113278;28;20139;-73
2023/02/19 08:25:59;;;;;;;9.05;6.88;;;;;;;15.35;37.30;99739.47;5112020;28;20015;-73
2023/02/19 08:28:25;;;;;;;24.00;12.25;;;;;;;15.39;37.86;99748.03;5101612;28;20020;-71
2023/02/19 08:30:50;;;;;;;10.35;7.20;;;;;;;15.47;37.46;99738.59;5104653;28;20091;-73
2023/02/19 08:33:20;;;;;;;12.48;8.85;;;;;;;15.84;36.10;99738.34;5113931;27;20019;-71
2023/02/19 08:35:46;;;;;;;30.63;10.80;;;;;;;16.15;35.76;99738.69;5112740;27;20080;-72
2023/02/19 08:38:15;;;;;;;25.15;14.02;;;;;;;16.35;35.24;99741.56;5112223;28;20457;-70
2023/02/19 08:40:41;;;;;;;22.02;13.15;;;;;;;16.60;34.85;99739.31;5112022;28;20087;-71
2023/02/19 08:43:12;;;;;;;16.08;8.43;;;;;;;16.63;34.55;99730.09;5112638;28;20106;-71
2023/02/19 08:45:40;;;;;;;32.88;14.02;;;;;;;16.85;34.98;99724.91;5112367;27;20027;-69
2023/02/19 08:48:07;;;;;;;13.02;5.80;;;;;;;16.79;34.74;99730.03;5112910;28;20016;-70
2023/02/19 08:50:32;;;;;;;8.80;6.72;;;;;;;16.59;35.14;99734.84;5111718;28;20035;-72
2023/02/19 08:52:59;;;;;;;13.52;7.10;;;;;;;16.65;35.31;99736.22;5113354;27;20027;-69
2023/02/19 08:55:24;;;;;;;23.45;13.32;;;;;;;16.92;34.92;99721.41;5113100;28;20097;-71
2023/02/19 08:57:50;;;;;;;17.02;7.65;;;;;;;16.91;35.02;99723.44;5113482;28;20027;-70
2023/02/19 09:00:16;;;;;;;11.30;5.75;;;;;;;17.06;34.61;99716.06;5110595;28;20032;-73
2023/02/19 09:02:41;;;;;;;11.48;6.13;;;;;;;17.18;34.18;99717.94;5111469;28;20016;-70
2023/02/19 09:05:07;;;;;;;13.15;7.30;;;;;;;17.09;34.24;99717.34;5109827;28;20027;-70
2023/02/19 09:07:32;;;;;;;11.57;6.30;;;;;;;17.12;33.93;99706.09;5113301;27;20553;-71
2023/02/19 09:09:59;;;;;;;11.90;6.18;;;;;;;17.08;33.69;99710.06;5113320;28;20024;-72
2023/02/19 09:12:25;;;;;;;17.73;7.47;;;;;;;16.93;34.56;99706.09;5113080;28;20433;-73
2023/02/19 09:14:50;;;;;;;7.22;5.50;;;;;;;17.11;33.83;99700.81;5112729;28;20023;-70
2023/02/19 09:17:16;;;;;;;14.77;7.22;;;;;;;17.28;34.18;99698.72;5111882;28;20034;-73
2023/02/19 09:19:42;;;;;;;10.30;6.55;;;;;;;17.50;33.37;99695.09;5109214;28;20023;-73
2023/02/19 09:22:07;;;;;;;7.28;5.82;;;;;;;17.41;33.56;99691.69;5111770;27;20047;-72
2023/02/19 09:24:33;;;;;;;6.75;5.82;;;;;;;17.58;33.66;99689.56;5111463;28;20120;-71
2023/02/19 09:26:58;;;;;;;13.07;6.38;;;;;;;17.63;32.96;99681.56;5112369;28;20019;-72
2023/02/19 09:29:26;;;;;;;9.50;5.82;;;;;;;17.73;32.58;99674.44;5112702;28;20011;-73
2023/02/19 09:31:56;;;;;;;15.10;8.38;;;;;;;17.64;33.33;99674.72;5112903;28;20096;-71
2023/02/19 09:34:21;;;;;;;9.25;5.68;;;;;;;17.72;32.97;99672.81;5112451;27;20077;-71
2023/02/19 09:36:50;;;;;;;9.15;5.90;;;;;;;17.71;33.00;99671.19;5111706;28;20494;-73
2023/02/19 09:39:17;;;;;;;9.35;6.10;;;;;;;17.78;32.52;99671.31;5125333;27;20035;-75
2023/02/19 09:41:46;;;;;;;11.23;6.25;;;;;;;17.86;32.68;99672.25;5107356;28;20035;-72
2023/02/19 09:44:17;;;;;;;8.90;6.37;;;;;;;17.92;32.89;99661.41;5109552;28;20075;-73
2023/02/19 09:46:48;;;;;;;10.13;5.93;;;;;;;17.77;31.72;99654.69;5106819;28;20035;-73
2023/02/19 09:49:26;;;;;;;19.25;8.77;;;;;;;17.94;32.20;99650.53;5105977;28;20446;-73
2023/02/19 09:52:07;;;;;;;8.77;6.28;;;;;;;18.27;31.79;99649.00;5106987;28;20027;-73
2023/02/19 09:54:35;;;;;;;7.03;5.10;;;;;;;18.33;31.43;99636.13;5109811;27;20482;-73
2023/02/19 09:57:02;;;;;;;10.63;5.28;;;;;;;18.19;31.65;99628.28;5108511;28;20035;-73
2023/02/19 10:00:03;;;;;;;8.23;5.00;;;;;;;18.44;31.57;99627.81;5111515;28;20024;-79
2023/02/19 10:02:30;;;;;;;6.90;5.00;;;;;;;18.63;30.66;99640.16;5109165;28;20406;-73
2023/02/19 10:04:56;;;;;;;7.78;4.93;;;;;;;18.86;30.24;99623.03;5104365;28;20087;-73
2023/02/19 10:07:25;;;;;;;7.43;5.50;;;;;;;19.04;29.88;99625.25;5109042;28;20023;-72
2023/02/19 10:09:52;;;;;;;6.25;4.30;;;;;;;18.92;30.57;99618.63;5108701;27;20742;-72
2023/02/19 10:12:25;;;;;;;12.13;5.55;;;;;;;18.82;30.92;99625.00;5109906;28;20557;-71
2023/02/19 10:14:54;;;;;;;11.10;5.20;;;;;;;18.93;30.36;99610.94;5106047;28;20058;-72
2023/02/19 10:17:28;;;;;;;9.30;5.32;;;;;;;18.94;30.29;99615.41;5104672;28;20020;-76
2023/02/19 10:19:55;;;;;;;6.78;4.78;;;;;;;19.25;30.54;99609.66;5109391;27;20028;-74
2023/02/19 10:22:21;;;;;;;8.20;5.65;;;;;;;19.15;29.74;99609.16;5109378;27;20027;-73
2023/02/19 10:24:50;;;;;;;13.15;5.07;;;;;;;18.51;30.84;99604.41;5110483;28;20055;-71
2023/02/19 10:27:16;;;;;;;9.57;4.53;;;;;;;19.16;30.21;99593.00;5108576;28;20020;-71
2023/02/19 10:29:47;;;;;;;8.15;5.05;;;;;;;18.92;30.66;99590.28;5110538;28;20115;-72
2023/02/19 10:32:22;;;;;;;7.38;5.45;;;;;;;19.28;29.96;99584.19;5108688;28;20031;-71
2023/02/19 10:35:12;;;;;;;8.88;5.25;;;;;;;19.05;29.73;99581.53;5105392;27;20628;-71
2023/02/19 10:37:47;;;;;;;5.88;4.55;;;;;;;19.02;30.14;99576.66;5100964;28;20542;-76
2023/02/19 10:40:18;;;;;;;10.65;5.22;;;;;;;19.11;30.00;99571.47;5109492;28;20520;-80
2023/02/19 10:42:48;;;;;;;10.30;5.03;;;;;;;19.61;29.34;99561.75;5093666;28;20035;-73
2023/02/19 10:45:21;;;;;;;7.07;4.60;;;;;;;19.70;28.83;99552.88;5110137;28;20558;-73
2023/02/19 10:47:47;;;;;;;9.18;4.57;;;;;;;19.76;28.49;99546.44;5107597;28;20031;-71
2023/02/19 10:50:28;;;;;;;8.82;4.55;;;;;;;20.00;28.40;99544.16;5104417;28;20024;-70
2023/02/19 10:52:56;;;;;;;10.75;6.40;;;;;;;19.94;28.46;99533.59;5103890;28;20394;-71
2023/02/19 10:55:22;;;;;;;9.70;5.20;;;;;;;19.81;29.01;99535.94;5104062;28;20501;-71
2023/02/19 10:57:49;;;;;;;10.13;4.80;;;;;;;20.10;28.45;99517.03;5107366;28;20103;-73
2023/02/19 11:00:14;;;;;;;12.57;8.73;;;;;;;20.43;28.26;99520.00;5105028;28;20023;-70
2023/02/19 11:02:41;;;;;;;14.65;6.50;;;;;;;20.21;28.28;99508.56;5105689;28;20524;-74
2023/02/19 11:05:15;;;;;;;9.45;6.55;;;;;;;19.99;29.13;99513.34;5106721;28;20114;-73
2023/02/19 11:08:01;;;;;;;9.43;5.88;;;;;;;19.84;28.72;99507.53;5106093;28;20427;-72
2023/02/19 11:10:29;;;;;;;7.93;5.63;;;;;;;19.62;28.91;99503.78;5100204;28;20043;-72
2023/02/19 11:13:01;;;;;;;9.27;5.40;;;;;;;19.41;28.29;99499.59;5102896;28;20080;-72
2023/02/19 11:15:35;;;;;;;7.80;5.88;;;;;;;19.73;28.91;99496.16;5107005;28;20072;-70
2023/02/19 11:18:21;;;;;;;10.40;4.93;;;;;;;19.96;28.15;99488.56;5106049;28;20490;-70
2023/02/19 11:20:59;;;;;;;5.18;4.68;;;;;;;19.89;28.19;99492.16;5107206;28;20111;-71
2023/02/19 11:23:30;;;;;;;6.10;4.85;;;;;;;20.23;27.93;99491.94;5105813;28;20036;-68
2023/02/19 11:26:01;;;;;;;10.57;4.80;;;;;;;20.38;27.47;99477.75;5108627;28;20434;-70
2023/02/19 11:28:38;;;;;;;7.75;4.93;;;;;;;20.74;27.63;99472.13;5108510;28;20020;-68
2023/02/19 11:31:19;;;;;;;7.70;5.18;;;;;;;20.71;27.91;99475.78;5109556;28;20016;-69
2023/02/19 11:33:58;;;;;;;11.18;5.25;;;;;;;20.86;27.36;99471.78;5103759;28;20524;-68
2023/02/19 11:36:25;;;;;;;9.38;4.88;;;;;;;20.79;27.19;99460.38;5104720;28;20030;-69
2023/02/19 11:38:52;;;;;;;10.10;5.00;;;;;;;20.94;26.75;99455.56;5109375;28;20489;-69
2023/02/19 11:41:36;;;;;;;10.07;5.15;;;;;;;21.20;26.66;99456.34;5104698;28;20065;-70
2023/02/19 11:44:07;;;;;;;6.78;5.10;;;;;;;20.44;27.11;99445.72;5098856;28;20031;-70
2023/02/19 11:46:49;;;;;;;10.00;5.50;;;;;;;19.97;28.50;99439.09;5105195;28;20054;-70
2023/02/19 11:49:33;;;;;;;12.27;5.25;;;;;;;20.43;27.87;99435.56;5108146;28;20081;-70
2023/02/19 11:52:12;;;;;;;8.45;5.07;;;;;;;20.73;28.09;99433.56;5106102;28;20023;-69
2023/02/19 11:54:40;;;;;;;7.32;5.38;;;;;;;20.49;28.11;99430.31;5104045;28;20111;-70
2023/02/19 11:57:47;;;;;;;6.18;5.00;;;;;;;20.87;27.83;99427.13;5099951;28;20035;-69
2023/02/19 12:00:18;;;;;;;11.93;5.55;;;;;;;21.12;27.45;99424.25;5108739;28;20027;-70
2023/02/19 12:02:53;;;;;;;7.82;5.00;;;;;;;20.89;27.04;99419.81;5114835;27;20466;-69
2023/02/19 12:05:37;;;;;;;9.20;5.13;;;;;;;21.12;26.76;99412.88;5127698;27;20019;-70